createdAt,value
2022-11-05T00:00:28.392Z,8.30
2022-11-05T00:03:11.070Z,9.87
2022-11-05T00:05:53.832Z,8.53
2022-11-05T00:08:38.924Z,10.37
2022-11-05T00:11:12.595Z,15.73
2022-11-05T00:13:58.219Z,13.20
2022-11-05T00:16:40.707Z,12.50
2022-11-05T00:19:11.046Z,10.40
2022-11-05T00:21:54.557Z,9.57
2022-11-05T00:24:40.462Z,10.27
2022-11-05T00:27:11.877Z,9.23
2022-11-05T00:29:41.908Z,8.97
2022-11-05T00:32:12.449Z,7.13
2022-11-05T00:34:42.512Z,7.50
2022-11-05T00:37:12.544Z,7.37
2022-11-05T00:39:45.124Z,6.67
2022-11-05T00:42:27.667Z,5.40
2022-11-05T00:45:03.799Z,5.90
2022-11-05T00:47:48.054Z,5.73
2022-11-05T00:50:19.281Z,4.90
2022-11-05T00:53:00.362Z,4.60
2022-11-05T00:55:38.256Z,4.50
2022-11-05T00:58:11.528Z,4.03
2022-11-05T01:00:44.244Z,4.63
2022-11-05T01:03:18.013Z,3.73
2022-11-05T01:05:51.000Z,3.97
2022-11-05T01:08:24.244Z,3.60
2022-11-05T01:10:59.683Z,3.60
2022-11-05T01:13:32.711Z,3.07
2022-11-05T01:16:10.201Z,2.83
2022-11-05T01:18:41.282Z,3.07
2022-11-05T01:21:17.023Z,3.27
2022-11-05T01:23:47.469Z,2.60
2022-11-05T01:26:20.123Z,2.97
2022-11-05T01:28:54.268Z,2.87
2022-11-05T01:31:25.132Z,2.53
2022-11-05T01:33:55.547Z,2.50
2022-11-05T01:36:25.599Z,2.60
2022-11-05T01:38:55.649Z,2.23
2022-11-05T01:41:28.323Z,2.57
2022-11-05T01:44:00.538Z,2.37
2022-11-05T01:46:38.756Z,1.93
2022-11-05T01:49:20.639Z,2.40
2022-11-05T01:51:51.471Z,2.80
2022-11-05T01:54:26.542Z,3.00
2022-11-05T01:57:06.618Z,2.50
2022-11-05T01:59:43.215Z,2.70
2022-11-05T02:02:13.859Z,2.20
2022-11-05T02:04:51.028Z,2.20
2022-11-05T02:07:21.794Z,2.47
2022-11-05T02:10:00.038Z,2.27
2022-11-05T02:12:35.227Z,2.43
2022-11-05T02:15:05.371Z,2.37
2022-11-05T02:17:53.410Z,2.20
2022-11-05T02:20:41.278Z,2.77
2022-11-05T02:23:57.499Z,2.20
2022-11-05T02:27:23.664Z,1.90
2022-11-05T02:30:15.103Z,2.30
2022-11-05T02:33:11.686Z,2.63
2022-11-05T02:36:07.080Z,2.10
2022-11-05T02:38:58.884Z,2.20
2022-11-05T02:41:38.351Z,3.80
2022-11-05T02:44:25.304Z,2.40
2022-11-05T02:47:08.032Z,2.50
2022-11-05T02:49:58.329Z,2.33
2022-11-05T02:52:38.860Z,2.37
2022-11-05T02:55:19.231Z,2.37
2022-11-05T02:57:51.173Z,2.30
2022-11-05T03:00:46.840Z,2.63
2022-11-05T03:03:31.859Z,2.83
2022-11-05T03:06:50.352Z,2.17
2022-11-05T03:10:06.188Z,2.60
2022-11-05T03:12:50.048Z,2.10
2022-11-05T03:15:37.861Z,2.93
2022-11-05T03:18:17.597Z,2.63
2022-11-05T03:20:54.208Z,2.80
2022-11-05T03:23:34.142Z,2.40
2022-11-05T03:26:12.660Z,2.03
2022-11-05T03:28:49.358Z,2.80
2022-11-05T03:31:22.233Z,2.80
2022-11-05T03:33:55.993Z,2.50
2022-11-05T03:36:31.930Z,3.13
2022-11-05T03:39:10.419Z,2.40
2022-11-05T03:41:45.074Z,2.23
2022-11-05T03:44:21.187Z,2.30
2022-11-05T03:46:53.514Z,2.30
2022-11-05T03:49:31.457Z,2.37
2022-11-05T03:52:10.116Z,1.93
2022-11-05T03:54:43.367Z,2.20
2022-11-05T03:57:21.986Z,2.90
2022-11-05T03:59:54.186Z,2.13
2022-11-05T04:02:28.687Z,2.40
2022-11-05T04:04:58.880Z,2.77
2022-11-05T04:07:41.409Z,2.57
2022-11-05T04:10:26.820Z,2.80
2022-11-05T04:13:09.709Z,2.00
2022-11-05T04:15:52.314Z,2.90
2022-11-05T04:18:22.336Z,2.37
2022-11-05T04:21:04.900Z,2.20
2022-11-05T04:23:47.783Z,2.73
2022-11-05T04:26:23.384Z,2.47
2022-11-05T04:29:07.993Z,2.37
2022-11-05T04:31:38.110Z,2.20
2022-11-05T04:34:08.503Z,3.00
2022-11-05T04:36:38.494Z,2.90
2022-11-05T04:39:08.542Z,3.83
2022-11-05T04:41:41.619Z,4.70
2022-11-05T04:44:11.754Z,4.17
2022-11-05T04:46:41.815Z,4.17
2022-11-05T04:49:11.905Z,4.60
2022-11-05T04:51:41.929Z,3.93
2022-11-05T04:54:11.907Z,3.90
2022-11-05T04:56:44.993Z,3.57
2022-11-05T04:59:14.976Z,3.60
2022-11-05T05:01:45.011Z,3.40
2022-11-05T05:04:15.050Z,3.70
2022-11-05T05:06:45.546Z,5.13
2022-11-05T05:09:15.593Z,3.70
2022-11-05T05:11:48.209Z,3.80
2022-11-05T05:14:18.170Z,3.83
2022-11-05T05:16:48.117Z,3.20
2022-11-05T05:19:18.107Z,3.13
2022-11-05T05:21:45.519Z,3.83
2022-11-05T05:24:18.760Z,3.67
2022-11-05T05:26:53.894Z,3.83
2022-11-05T05:29:24.009Z,3.70
2022-11-05T05:31:54.558Z,3.40
2022-11-05T05:34:24.540Z,3.80
2022-11-05T05:36:54.532Z,3.40
2022-11-05T05:39:24.713Z,3.63
2022-11-05T05:41:57.531Z,3.23
2022-11-05T05:44:27.636Z,3.17
2022-11-05T05:46:57.717Z,3.33
2022-11-05T05:49:27.808Z,4.03
2022-11-05T05:51:57.876Z,4.10
2022-11-05T05:54:32.639Z,4.53
2022-11-05T05:57:07.028Z,4.10
2022-11-05T05:59:37.010Z,3.63
2022-11-05T06:02:07.251Z,3.80
2022-11-05T06:04:37.336Z,3.63
2022-11-05T06:07:07.295Z,3.90
2022-11-05T06:09:37.290Z,4.13
2022-11-05T06:12:10.447Z,4.73
2022-11-05T06:14:40.464Z,4.60
2022-11-05T06:17:10.780Z,4.00
2022-11-05T06:19:40.759Z,4.17
2022-11-05T06:22:10.764Z,5.50
2022-11-05T06:24:40.815Z,5.40
2022-11-05T06:27:13.349Z,4.57
2022-11-05T06:29:43.361Z,4.80
2022-11-05T06:32:13.488Z,4.53
2022-11-05T06:34:43.493Z,5.10
2022-11-05T06:37:14.157Z,5.97
2022-11-05T06:39:44.190Z,5.50
2022-11-05T06:42:18.708Z,5.67
2022-11-05T06:44:49.644Z,5.30
2022-11-05T06:47:19.847Z,6.30
2022-11-05T06:49:50.148Z,6.43
2022-11-05T06:52:21.154Z,6.20
2022-11-05T06:54:51.345Z,6.20
2022-11-05T06:57:23.936Z,6.30
2022-11-05T06:59:59.941Z,5.70
2022-11-05T07:02:31.484Z,5.47
2022-11-05T07:05:01.682Z,14.20
2022-11-05T07:07:31.702Z,11.70
2022-11-05T07:10:01.743Z,10.93
2022-11-05T07:12:34.391Z,15.93
2022-11-05T07:15:04.536Z,17.93
2022-11-05T07:17:35.483Z,20.13
2022-11-05T07:20:06.042Z,17.20
2022-11-05T07:22:36.120Z,20.60
2022-11-05T07:25:07.847Z,18.87
2022-11-05T07:27:43.793Z,19.57
2022-11-05T07:30:14.675Z,16.50
2022-11-05T07:32:45.042Z,19.37
2022-11-05T07:35:15.071Z,20.27
2022-11-05T07:37:46.485Z,19.30
2022-11-05T07:40:19.250Z,23.17
2022-11-05T07:42:55.148Z,22.13
2022-11-05T07:45:26.421Z,20.63
2022-11-05T07:48:00.483Z,19.83
2022-11-05T07:50:33.779Z,21.13
2022-11-05T07:53:05.860Z,21.07
2022-11-05T07:55:36.809Z,22.20
2022-11-05T07:58:09.761Z,21.80
2022-11-05T08:00:40.342Z,21.77
2022-11-05T08:03:14.984Z,23.33
2022-11-05T08:05:48.909Z,22.50
2022-11-05T08:08:21.675Z,19.93
2022-11-05T08:10:51.724Z,20.47
2022-11-05T08:13:24.291Z,19.37
2022-11-05T08:15:54.521Z,20.20
2022-11-05T08:18:31.239Z,19.00
2022-11-05T08:21:03.628Z,19.50
2022-11-05T08:23:35.538Z,18.40
2022-11-05T08:26:06.903Z,20.10
2022-11-05T08:28:39.490Z,20.33
2022-11-05T08:31:09.564Z,18.50
2022-11-05T08:33:39.586Z,20.20
2022-11-05T08:36:10.317Z,21.00
2022-11-05T08:38:40.321Z,19.07
2022-11-05T08:41:10.500Z,19.23
2022-11-05T08:43:43.064Z,21.20
2022-11-05T08:46:13.060Z,22.30
2022-11-05T08:48:43.097Z,20.40
2022-11-05T08:51:13.019Z,19.37
2022-11-05T08:53:43.012Z,14.13
2022-11-05T08:56:13.031Z,14.60
2022-11-05T08:58:45.807Z,14.87
2022-11-05T09:01:15.922Z,11.87
2022-11-05T09:03:46.053Z,10.30
2022-11-05T09:06:15.993Z,10.63
2022-11-05T09:08:46.107Z,9.90
2022-11-05T09:11:16.603Z,11.03
2022-11-05T09:13:49.223Z,9.57
2022-11-05T09:16:24.737Z,10.47
2022-11-05T09:18:56.296Z,11.20
2022-11-05T09:21:26.249Z,8.70
2022-11-05T09:23:56.281Z,8.60
2022-11-05T09:26:27.213Z,8.60
2022-11-05T09:29:00.236Z,6.77
2022-11-05T09:31:30.433Z,7.20
2022-11-05T09:34:00.778Z,7.97
2022-11-05T09:36:30.831Z,7.90
2022-11-05T09:39:01.006Z,8.07
2022-11-05T09:41:37.213Z,9.00
2022-11-05T09:44:18.479Z,8.23
2022-11-05T09:46:54.240Z,7.23
2022-11-05T09:49:35.410Z,8.47
2022-11-05T09:52:06.192Z,7.80
2022-11-05T09:54:36.219Z,8.27
2022-11-05T09:57:10.538Z,9.57
2022-11-05T09:59:49.165Z,9.00
2022-11-05T10:02:25.046Z,9.03
2022-11-05T10:05:04.882Z,9.33
2022-11-05T10:07:47.865Z,9.87
2022-11-05T10:10:41.258Z,10.80
2022-11-05T10:13:24.619Z,11.67
2022-11-05T10:16:07.577Z,10.67
2022-11-05T10:18:42.257Z,11.20
2022-11-05T10:21:37.691Z,10.80
2022-11-05T10:24:17.335Z,9.57
2022-11-05T10:26:51.541Z,12.07
2022-11-05T10:29:30.580Z,10.80
2022-11-05T10:32:08.309Z,11.97
2022-11-05T10:34:42.187Z,12.70
2022-11-05T10:37:13.054Z,11.93
2022-11-05T10:39:43.153Z,12.87
2022-11-05T10:42:38.676Z,14.20
2022-11-05T10:45:24.554Z,12.67
2022-11-05T10:48:30.575Z,12.43
2022-11-05T10:51:00.794Z,11.80
2022-11-05T10:53:35.337Z,10.40
2022-11-05T10:56:05.846Z,12.23
2022-11-05T10:58:42.140Z,12.73
2022-11-05T11:01:15.265Z,11.20
2022-11-05T11:03:51.643Z,10.77
2022-11-05T11:06:29.832Z,11.00
2022-11-05T11:09:03.403Z,11.83
2022-11-05T11:11:39.154Z,10.37
2022-11-05T11:14:22.744Z,10.00
2022-11-05T11:16:57.389Z,9.03
2022-11-05T11:19:34.547Z,10.27
2022-11-05T11:22:23.695Z,9.03
2022-11-05T11:24:56.544Z,9.83
2022-11-05T11:27:31.969Z,8.37
2022-11-05T11:30:06.363Z,8.63
2022-11-05T11:32:40.746Z,7.80
2022-11-05T11:35:26.695Z,9.37
2022-11-05T11:38:02.175Z,8.20
2022-11-05T11:40:37.310Z,8.70
2022-11-05T11:43:18.239Z,8.57
2022-11-05T11:45:52.415Z,8.23
2022-11-05T11:48:28.229Z,8.20
2022-11-05T11:51:01.915Z,8.17
2022-11-05T11:53:37.792Z,8.30
2022-11-05T11:56:19.419Z,7.33
2022-11-05T11:58:53.227Z,7.20
2022-11-05T12:02:15.602Z,6.17
2022-11-05T12:05:13.824Z,6.03
2022-11-05T12:07:54.593Z,9.40
2022-11-05T12:10:45.909Z,7.50
2022-11-05T12:14:04.904Z,6.67
2022-11-05T12:17:23.610Z,8.97
2022-11-05T12:20:31.027Z,7.90
2022-11-05T12:23:37.535Z,7.40
2022-11-05T12:26:21.738Z,9.77
2022-11-05T12:29:18.744Z,7.47
2022-11-05T12:32:11.414Z,8.47
2022-11-05T12:35:00.067Z,8.03
2022-11-05T12:37:40.156Z,7.67
2022-11-05T12:40:38.376Z,6.50
2022-11-05T12:43:26.375Z,7.10
2022-11-05T12:46:06.823Z,6.40
2022-11-05T12:49:20.930Z,6.60
2022-11-05T12:52:25.854Z,7.97
2022-11-05T12:55:08.333Z,6.37
2022-11-05T12:57:45.835Z,7.50
2022-11-05T13:00:22.597Z,8.20
2022-11-05T13:03:00.597Z,7.07
2022-11-05T13:05:40.358Z,7.30
2022-11-05T13:08:14.742Z,7.10
2022-11-05T13:10:52.691Z,6.90
2022-11-05T13:13:34.627Z,6.30
2022-11-05T13:16:16.706Z,7.17
2022-11-05T13:18:52.303Z,7.57
2022-11-05T13:21:29.102Z,7.17
2022-11-05T13:24:08.632Z,6.73
2022-11-05T13:26:48.990Z,6.87
2022-11-05T13:29:28.763Z,6.07
2022-11-05T13:32:06.928Z,6.77
2022-11-05T13:34:37.853Z,6.03
2022-11-05T13:37:38.996Z,6.80
2022-11-05T13:40:16.044Z,7.47
2022-11-05T13:43:14.610Z,6.20
2022-11-05T13:46:06.749Z,7.40
2022-11-05T13:49:07.961Z,6.73
2022-11-05T13:51:56.813Z,6.07
2022-11-05T13:55:16.662Z,6.33
2022-11-05T13:58:31.015Z,6.57
2022-11-05T14:01:19.442Z,7.60
2022-11-05T14:03:51.620Z,6.67
2022-11-05T14:06:29.973Z,6.23
2022-11-05T14:09:05.110Z,6.10
2022-11-05T14:11:40.398Z,6.33
2022-11-05T14:14:21.528Z,6.70
2022-11-05T14:16:57.916Z,5.50
2022-11-05T14:19:37.334Z,6.23
2022-11-05T14:22:40.275Z,6.20
2022-11-05T14:25:57.749Z,5.50
2022-11-05T14:28:47.635Z,6.33
2022-11-05T14:32:07.068Z,6.17
2022-11-05T14:34:50.355Z,6.03
2022-11-05T14:37:29.550Z,6.10
2022-11-05T14:40:03.737Z,6.60
2022-11-05T14:42:34.532Z,6.13
2022-11-05T14:45:23.700Z,6.73
2022-11-05T14:47:58.863Z,6.23
2022-11-05T14:50:41.770Z,6.53
2022-11-05T14:53:33.324Z,6.50
2022-11-05T14:56:09.678Z,7.00
2022-11-05T14:58:41.443Z,7.10
2022-11-05T15:01:51.982Z,6.83
2022-11-05T15:04:31.244Z,6.30
2022-11-05T15:07:36.419Z,6.40
2022-11-05T15:10:14.652Z,6.73
2022-11-05T15:12:50.318Z,7.50
2022-11-05T15:15:27.697Z,8.10
2022-11-05T15:18:08.919Z,6.30
2022-11-05T15:20:46.920Z,7.37
2022-11-05T15:23:24.343Z,6.07
2022-11-05T15:26:05.575Z,7.23
2022-11-05T15:28:41.415Z,7.23
2022-11-05T15:31:32.011Z,7.10
2022-11-05T15:34:28.928Z,7.20
2022-11-05T15:37:02.201Z,7.70
2022-11-05T15:39:43.154Z,8.07
2022-11-05T15:42:18.300Z,7.10
2022-11-05T15:44:51.075Z,6.60
2022-11-05T15:47:26.208Z,8.63
2022-11-05T15:49:59.947Z,5.90
2022-11-05T15:52:37.136Z,6.60
2022-11-05T15:55:23.806Z,6.70
2022-11-05T15:57:59.729Z,7.73
2022-11-05T16:00:31.826Z,6.87
2022-11-05T16:03:07.039Z,10.40
2022-11-05T16:05:45.036Z,9.00
2022-11-05T16:08:29.094Z,7.43
2022-11-05T16:11:04.128Z,5.83
2022-11-05T16:13:41.182Z,7.43
2022-11-05T16:16:36.022Z,6.30
2022-11-05T16:19:40.961Z,7.97
2022-11-05T16:22:11.563Z,7.00
2022-11-05T16:24:41.633Z,6.80
2022-11-05T16:27:20.313Z,6.60
2022-11-05T16:29:54.538Z,7.97
2022-11-05T16:32:31.358Z,7.27
2022-11-05T16:35:05.378Z,5.80
2022-11-05T16:37:49.149Z,6.03
2022-11-05T16:40:24.628Z,7.77
2022-11-05T16:42:57.845Z,9.80
2022-11-05T16:45:28.339Z,8.73
2022-11-05T16:47:58.333Z,6.73
2022-11-05T16:50:34.407Z,8.63
2022-11-05T16:53:04.412Z,8.20
2022-11-05T16:55:35.972Z,7.77
2022-11-05T16:58:16.975Z,7.23
2022-11-05T17:00:47.090Z,8.27
2022-11-05T17:03:17.221Z,8.83
2022-11-05T17:05:47.504Z,12.87
2022-11-05T17:08:17.549Z,8.03
2022-11-05T17:10:47.673Z,7.50
2022-11-05T17:13:22.561Z,8.37
2022-11-05T17:15:54.334Z,8.50
2022-11-05T17:18:24.684Z,7.70
2022-11-05T17:20:57.791Z,8.67
2022-11-05T17:23:29.972Z,7.60
2022-11-05T17:26:09.832Z,7.43
2022-11-05T17:28:43.470Z,8.23
2022-11-05T17:31:17.339Z,8.27
2022-11-05T17:33:47.478Z,8.27
2022-11-05T17:36:18.836Z,8.07
2022-11-05T17:38:48.874Z,8.60
2022-11-05T17:41:22.121Z,9.63
2022-11-05T17:44:00.377Z,9.43
2022-11-05T17:46:30.691Z,11.63
2022-11-05T17:49:00.912Z,16.43
2022-11-05T17:51:32.792Z,19.37
2022-11-05T17:54:02.855Z,16.77
2022-11-05T17:56:36.264Z,12.43
2022-11-05T17:59:10.564Z,13.13
2022-11-05T18:01:43.346Z,13.50
2022-11-05T18:04:13.675Z,14.17
2022-11-05T18:06:44.865Z,15.40
2022-11-05T18:09:15.953Z,15.87
2022-11-05T18:11:46.439Z,18.47
2022-11-05T18:14:23.859Z,21.60
2022-11-05T18:16:55.432Z,17.60
2022-11-05T18:19:25.575Z,18.47
2022-11-05T18:21:55.836Z,17.07
2022-11-05T18:24:25.985Z,26.30
2022-11-05T18:26:56.020Z,25.23
2022-11-05T18:29:28.775Z,25.63
2022-11-05T18:31:58.985Z,27.70
2022-11-05T18:34:29.001Z,29.30
2022-11-05T18:37:01.773Z,26.03
2022-11-05T18:39:31.966Z,29.50
2022-11-05T18:42:01.967Z,31.53
2022-11-05T18:44:39.141Z,29.60
2022-11-05T18:47:09.819Z,27.77
2022-11-05T18:49:39.942Z,25.93
2022-11-05T18:52:09.967Z,28.73
2022-11-05T18:54:40.008Z,26.20
2022-11-05T18:57:10.311Z,25.27
2022-11-05T18:59:46.979Z,23.80
2022-11-05T19:02:18.305Z,25.50
2022-11-05T19:05:22.158Z,24.87
2022-11-05T19:07:41.231Z,24.97
2022-11-05T19:10:12.428Z,26.50
2022-11-05T19:12:42.538Z,26.87
2022-11-05T19:15:15.447Z,25.60
2022-11-05T19:17:45.726Z,27.10
2022-11-05T19:20:16.146Z,25.53
2022-11-05T19:22:46.164Z,28.83
2022-11-05T19:25:16.297Z,26.60
2022-11-05T19:27:47.271Z,29.07
2022-11-05T19:30:20.199Z,26.23
2022-11-05T19:32:50.192Z,27.10
2022-11-05T19:35:20.546Z,26.97
2022-11-05T19:37:53.501Z,25.73
2022-11-05T19:40:24.193Z,30.57
2022-11-05T19:42:54.225Z,32.97
2022-11-05T19:45:44.100Z,31.90
2022-11-05T19:48:19.472Z,29.70
2022-11-05T19:50:50.208Z,32.50
2022-11-05T19:53:20.241Z,29.67
2022-11-05T19:55:50.255Z,30.27
2022-11-05T19:58:20.468Z,32.90
2022-11-05T20:00:53.115Z,32.00
2022-11-05T20:03:23.244Z,28.80
2022-11-05T20:05:53.317Z,34.67
2022-11-05T20:08:23.625Z,31.10
2022-11-05T20:10:57.330Z,33.53
2022-11-05T20:13:27.486Z,28.43
2022-11-05T20:16:01.588Z,28.87
2022-11-05T20:18:31.803Z,29.83
2022-11-05T20:21:07.770Z,29.20
2022-11-05T20:23:38.788Z,27.60
2022-11-05T20:26:10.505Z,28.40
2022-11-05T20:28:42.739Z,30.40
2022-11-05T20:31:18.535Z,33.73
2022-11-05T20:33:49.572Z,28.00
2022-11-05T20:36:22.644Z,29.90
2022-11-05T20:38:55.278Z,30.63
2022-11-05T20:41:25.831Z,29.60
2022-11-05T20:43:56.594Z,32.13
2022-11-05T20:46:30.017Z,30.03
2022-11-05T20:49:00.027Z,30.87
2022-11-05T20:51:30.099Z,31.37
2022-11-05T20:54:02.396Z,35.30
2022-11-05T20:56:35.415Z,30.80
2022-11-05T20:59:06.675Z,31.53
2022-11-05T21:01:39.821Z,32.97
2022-11-05T21:04:10.047Z,37.20
2022-11-05T21:06:40.092Z,33.03
2022-11-05T21:09:10.097Z,33.70
2022-11-05T21:11:52.350Z,37.00
2022-11-05T21:14:22.455Z,35.50
2022-11-05T21:16:54.991Z,35.50
2022-11-05T21:19:25.107Z,33.73
2022-11-05T21:21:55.588Z,31.93
2022-11-05T21:24:25.777Z,29.60
2022-11-05T21:26:56.333Z,28.57
2022-11-05T21:29:26.589Z,27.93
2022-11-05T21:31:59.182Z,29.20
2022-11-05T21:34:29.745Z,28.27
2022-11-05T21:36:59.721Z,27.43
2022-11-05T21:39:30.401Z,27.10
2022-11-05T21:42:00.380Z,26.30
2022-11-05T21:44:30.559Z,26.80
2022-11-05T21:47:04.570Z,30.30
2022-11-05T21:49:37.043Z,26.93
2022-11-05T21:52:20.252Z,29.77
2022-11-05T21:55:03.007Z,26.77
2022-11-05T21:57:45.532Z,29.03
2022-11-05T22:00:16.666Z,34.07
2022-11-05T22:02:49.444Z,35.07
2022-11-05T22:05:19.844Z,29.97
2022-11-05T22:07:49.919Z,36.40
2022-11-05T22:10:20.011Z,35.43
2022-11-05T22:12:50.234Z,34.13
2022-11-05T22:15:20.503Z,36.87
2022-11-05T22:17:55.248Z,31.50
2022-11-05T22:20:25.684Z,32.93
2022-11-05T22:22:57.127Z,32.00
2022-11-05T22:25:27.150Z,37.70
2022-11-05T22:27:57.148Z,30.03
2022-11-05T22:30:27.210Z,36.67
2022-11-05T22:32:59.749Z,31.57
2022-11-05T22:35:29.915Z,33.43
2022-11-05T22:38:00.078Z,41.23
2022-11-05T22:40:30.148Z,32.93
2022-11-05T22:43:00.519Z,34.90
2022-11-05T22:45:30.537Z,54.73
2022-11-05T22:48:06.724Z,43.93
2022-11-05T22:50:37.069Z,39.80
2022-11-05T22:53:07.152Z,34.90
2022-11-05T22:55:42.121Z,33.37
2022-11-05T22:58:12.542Z,28.90
2022-11-05T23:00:43.049Z,30.53
2022-11-05T23:03:15.681Z,34.60
2022-11-05T23:05:45.654Z,33.67
2022-11-05T23:08:28.125Z,29.97
2022-11-05T23:11:10.647Z,29.33
2022-11-05T23:13:40.707Z,32.87
2022-11-05T23:16:23.644Z,36.37
2022-11-05T23:19:08.774Z,50.20
2022-11-05T23:21:54.015Z,40.23
2022-11-05T23:24:24.002Z,30.53
2022-11-05T23:26:54.092Z,27.50
2022-11-05T23:29:26.976Z,26.13
2022-11-05T23:32:09.742Z,26.33
2022-11-05T23:34:42.745Z,25.13
2022-11-05T23:37:25.373Z,25.40
2022-11-05T23:39:55.379Z,24.17
2022-11-05T23:42:38.205Z,24.03
2022-11-05T23:45:22.795Z,22.70
2022-11-05T23:48:05.502Z,21.30
2022-11-05T23:50:40.028Z,17.93
2022-11-05T23:53:10.931Z,19.60
2022-11-05T23:55:41.322Z,17.60
2022-11-05T23:58:12.968Z,20.27
